Alden, Michigan
Current Conditions -  °F | °C
As of 5:34 PM on Sunday 23 Nov 2014 (Local Time) from KACB Reporting Station
Overcast Overcast  
Wind Chill:   Ceiling: 900
Heat Index:   Visibility: 10mi
Dew Point:   Wind: 5mph
Humidity: 94%   Direction: 170°S
Pressure: 29.54"   Gusts: NA
Location:  44.88°N, 85.28°W
Report Text: KACB 232234Z AUTO 17004KT 10SM OVC009 09/08 A2954 RMK AO2 T00850076
Loading
Personal Weather Stations






























Interactive Weather Map New forecast layout! Learn more

10-Day Weather Forecast

Advertisements
Track Severe Weather on mobile